createdAt,value
2022-07-27T00:00:36.345Z,19.10
2022-07-27T00:03:23.312Z,19.00
2022-07-27T00:06:08.737Z,19.00
2022-07-27T00:08:54.685Z,18.90
2022-07-27T00:11:40.343Z,18.80
2022-07-27T00:14:27.369Z,18.90
2022-07-27T00:17:13.107Z,19.00
2022-07-27T00:19:58.594Z,18.90
2022-07-27T00:22:44.113Z,18.90
2022-07-27T00:25:29.638Z,18.90
2022-07-27T00:28:15.120Z,18.90
2022-07-27T00:31:00.633Z,18.90
2022-07-27T00:33:46.168Z,18.90
2022-07-27T00:36:31.918Z,18.90
2022-07-27T00:39:17.690Z,18.80
2022-07-27T00:42:03.345Z,18.80
2022-07-27T00:44:48.843Z,18.70
2022-07-27T00:47:34.458Z,18.70
2022-07-27T00:50:20.220Z,18.60
2022-07-27T00:53:06.017Z,18.60
2022-07-27T00:55:51.591Z,18.50
2022-07-27T00:58:38.426Z,18.50
2022-07-27T01:01:24.296Z,18.40
2022-07-27T01:04:09.793Z,18.40
2022-07-27T01:06:57.191Z,18.20
2022-07-27T01:09:58.408Z,18.30
2022-07-27T01:12:46.144Z,18.30
2022-07-27T01:15:35.161Z,18.20
2022-07-27T01:18:32.493Z,18.20
2022-07-27T01:21:18.048Z,18.20
2022-07-27T01:24:04.754Z,18.20
2022-07-27T01:26:50.103Z,17.70
2022-07-27T01:29:36.099Z,17.30
2022-07-27T01:32:21.635Z,17.30
2022-07-27T01:35:07.785Z,17.50
2022-07-27T01:37:53.515Z,17.80
2022-07-27T01:40:39.989Z,18.10
2022-07-27T01:43:25.913Z,18.20
2022-07-27T01:46:11.731Z,18.30
2022-07-27T01:48:57.251Z,18.30
2022-07-27T01:51:43.081Z,18.40
2022-07-27T01:54:28.713Z,18.30
2022-07-27T01:57:14.883Z,18.30
2022-07-27T02:00:00.929Z,18.30
2022-07-27T02:02:47.244Z,18.20
2022-07-27T02:05:33.183Z,18.10
2022-07-27T02:08:18.722Z,18.10
2022-07-27T02:11:22.887Z,17.80
2022-07-27T02:14:08.693Z,18.00
2022-07-27T02:16:54.387Z,18.20
2022-07-27T02:19:41.448Z,18.30
2022-07-27T02:22:27.683Z,18.30
2022-07-27T02:25:16.160Z,18.30
2022-07-27T02:28:01.771Z,18.30
2022-07-27T02:30:47.422Z,18.30
2022-07-27T02:33:33.435Z,18.30
2022-07-27T02:36:19.177Z,18.30
2022-07-27T02:39:05.004Z,18.30
2022-07-27T02:41:50.765Z,18.30
2022-07-27T02:44:36.589Z,17.90
2022-07-27T02:47:22.290Z,18.10
2022-07-27T02:50:09.828Z,18.10
2022-07-27T02:52:55.546Z,18.20
2022-07-27T02:55:41.166Z,18.20
2022-07-27T02:58:26.914Z,18.30
2022-07-27T03:01:12.436Z,18.30
2022-07-27T03:03:57.766Z,18.40
2022-07-27T03:06:43.791Z,18.30
2022-07-27T03:09:33.434Z,18.30
2022-07-27T03:12:19.135Z,18.30
2022-07-27T03:15:05.447Z,18.30
2022-07-27T03:17:51.377Z,18.30
2022-07-27T03:20:36.898Z,18.30
2022-07-27T03:23:22.474Z,18.20
2022-07-27T03:26:08.429Z,18.20
2022-07-27T03:28:54.218Z,18.30
2022-07-27T03:31:40.954Z,18.30
2022-07-27T03:34:28.055Z,18.30
2022-07-27T03:37:15.181Z,18.30
2022-07-27T03:40:01.121Z,18.40
2022-07-27T03:42:46.575Z,18.40
2022-07-27T03:45:32.333Z,18.30
2022-07-27T03:48:18.110Z,18.30
2022-07-27T03:51:03.794Z,18.20
2022-07-27T03:53:49.673Z,18.10
2022-07-27T03:56:35.375Z,18.10
2022-07-27T03:59:20.735Z,18.00
2022-07-27T04:02:06.243Z,17.90
2022-07-27T04:04:51.545Z,17.90
2022-07-27T04:07:37.140Z,17.80
2022-07-27T04:10:23.519Z,17.70
2022-07-27T04:13:12.533Z,17.70
2022-07-27T04:15:59.441Z,17.70
2022-07-27T04:18:45.049Z,17.60
2022-07-27T04:21:33.679Z,17.60
2022-07-27T04:24:19.617Z,17.60
2022-07-27T04:27:05.069Z,17.60
2022-07-27T04:29:50.596Z,17.60
2022-07-27T04:32:36.387Z,17.50
2022-07-27T04:35:26.349Z,17.50
2022-07-27T04:38:12.237Z,17.60
2022-07-27T04:40:58.543Z,17.70
2022-07-27T04:43:44.067Z,17.70
2022-07-27T04:46:30.066Z,17.70
2022-07-27T04:49:16.404Z,17.80
2022-07-27T04:52:02.303Z,17.80
2022-07-27T04:54:51.930Z,17.80
2022-07-27T04:57:37.304Z,17.80
2022-07-27T05:00:22.800Z,17.80
2022-07-27T05:03:09.152Z,17.70
2022-07-27T05:05:55.263Z,17.70
2022-07-27T05:08:40.978Z,17.70
2022-07-27T05:11:26.708Z,17.70
2022-07-27T05:14:12.388Z,17.60
2022-07-27T05:16:57.939Z,17.60
2022-07-27T05:19:43.625Z,17.60
2022-07-27T05:22:29.208Z,17.70
2022-07-27T05:25:14.986Z,17.70
2022-07-27T05:28:00.345Z,17.80
2022-07-27T05:30:45.900Z,17.80
2022-07-27T05:33:31.999Z,17.90
2022-07-27T05:36:17.605Z,18.00
2022-07-27T05:39:03.346Z,18.00
2022-07-27T05:41:49.005Z,18.10
2022-07-27T05:44:35.745Z,18.10
2022-07-27T05:47:21.483Z,18.20
2022-07-27T05:50:07.560Z,18.30
2022-07-27T05:52:53.114Z,18.40
2022-07-27T05:55:38.608Z,18.50
2022-07-27T05:58:24.314Z,18.60
2022-07-27T06:01:10.768Z,18.70
2022-07-27T06:03:56.118Z,18.80
2022-07-27T06:06:59.958Z,18.80
2022-07-27T06:09:45.737Z,18.80
2022-07-27T06:12:36.364Z,18.90
2022-07-27T06:15:23.108Z,19.10
2022-07-27T06:18:14.965Z,19.30
2022-07-27T06:21:01.712Z,19.40
2022-07-27T06:23:48.642Z,19.40
2022-07-27T06:26:34.453Z,19.50
2022-07-27T06:29:20.066Z,19.50
2022-07-27T06:32:06.242Z,19.60
2022-07-27T06:34:53.595Z,19.60
2022-07-27T06:37:44.126Z,19.80
2022-07-27T06:40:32.039Z,20.00
2022-07-27T06:43:18.233Z,20.10
2022-07-27T06:46:05.748Z,20.20
2022-07-27T06:48:51.280Z,20.40
2022-07-27T06:51:37.930Z,20.40
2022-07-27T06:54:23.531Z,20.60
2022-07-27T06:57:09.104Z,20.70
2022-07-27T06:59:54.577Z,20.80
2022-07-27T07:02:55.124Z,20.70
2022-07-27T07:05:44.532Z,20.70
2022-07-27T07:08:30.796Z,20.90
2022-07-27T07:11:16.548Z,20.90
2022-07-27T07:14:02.237Z,21.00
2022-07-27T07:16:48.818Z,21.00
2022-07-27T07:19:34.552Z,21.20
2022-07-27T07:22:19.984Z,21.20
2022-07-27T07:25:06.044Z,21.10
2022-07-27T07:27:52.761Z,21.30
2022-07-27T07:30:38.575Z,21.40
2022-07-27T07:33:24.470Z,21.50
2022-07-27T07:36:14.442Z,21.60
2022-07-27T07:39:00.903Z,21.70
2022-07-27T07:41:46.489Z,21.80
2022-07-27T07:44:32.087Z,21.80
2022-07-27T07:47:17.634Z,21.80
2022-07-27T07:50:03.444Z,21.90
2022-07-27T07:52:50.989Z,22.00
2022-07-27T07:55:36.392Z,22.00
2022-07-27T07:58:22.204Z,21.90
2022-07-27T08:01:07.649Z,22.00
2022-07-27T08:03:53.291Z,22.00
2022-07-27T08:06:40.101Z,22.10
2022-07-27T08:09:28.380Z,22.00
2022-07-27T08:12:14.126Z,22.20
2022-07-27T08:14:59.854Z,22.40
2022-07-27T08:17:46.086Z,22.60
2022-07-27T08:20:31.930Z,22.90
2022-07-27T08:23:17.842Z,23.00
2022-07-27T08:26:07.688Z,23.30
2022-07-27T08:28:53.498Z,23.50
2022-07-27T08:31:52.968Z,23.50
2022-07-27T08:34:38.805Z,23.50
2022-07-27T08:37:24.495Z,23.40
2022-07-27T08:43:25.362Z,23.90
2022-07-27T08:46:11.640Z,24.00
2022-07-27T08:48:57.686Z,23.80
2022-07-27T08:51:47.342Z,23.60
2022-07-27T08:54:33.290Z,23.60
2022-07-27T08:57:18.817Z,23.60
2022-07-27T09:00:08.846Z,23.70
2022-07-27T09:02:54.807Z,23.80
2022-07-27T09:05:45.028Z,24.20
2022-07-27T09:08:31.714Z,24.30
2022-07-27T09:11:17.155Z,24.50
2022-07-27T09:14:05.147Z,24.90
2022-07-27T09:17:45.899Z,25.10
2022-07-27T09:20:01.974Z,25.40
2022-07-27T09:22:52.659Z,25.50
2022-07-27T09:26:02.441Z,25.70
2022-07-27T09:28:45.864Z,25.70
2022-07-27T09:31:31.937Z,25.70
2022-07-27T09:34:28.677Z,25.60
2022-07-27T09:37:27.384Z,25.60
2022-07-27T09:40:25.645Z,25.60
2022-07-27T09:44:12.183Z,25.80
2022-07-27T09:46:31.094Z,26.00
2022-07-27T09:49:27.223Z,26.10
2022-07-27T09:52:27.656Z,26.00
2022-07-27T09:55:14.277Z,26.10
2022-07-27T09:57:59.749Z,26.30
2022-07-27T10:00:57.164Z,26.20
2022-07-27T10:03:45.937Z,26.30
2022-07-27T10:06:47.729Z,26.50
2022-07-27T10:09:38.004Z,27.00
2022-07-27T10:12:23.831Z,27.30
2022-07-27T10:15:12.980Z,27.30
2022-07-27T10:18:18.386Z,27.10
2022-07-27T10:21:08.451Z,27.20
2022-07-27T10:23:57.041Z,27.20
2022-07-27T10:26:43.657Z,27.40
2022-07-27T10:29:30.011Z,27.60
2022-07-27T10:32:33.118Z,28.10
2022-07-27T10:35:35.365Z,28.30
2022-07-27T10:38:21.689Z,28.60
2022-07-27T10:41:24.829Z,28.30
2022-07-27T10:44:22.918Z,28.20
2022-07-27T10:47:08.314Z,28.20
2022-07-27T10:50:16.779Z,28.10
2022-07-27T10:53:06.498Z,28.20
2022-07-27T10:55:52.726Z,28.70
2022-07-27T10:58:38.239Z,28.70
2022-07-27T11:01:24.039Z,29.10
2022-07-27T11:04:10.196Z,29.10
2022-07-27T11:07:24.098Z,28.80
2022-07-27T11:10:05.170Z,28.60
2022-07-27T11:12:53.651Z,28.60
2022-07-27T11:15:39.292Z,28.60
2022-07-27T11:18:29.826Z,28.60
2022-07-27T11:21:26.427Z,28.60
2022-07-27T11:24:16.467Z,29.00
2022-07-27T11:27:16.416Z,29.40
2022-07-27T11:30:03.648Z,29.30
2022-07-27T11:32:49.693Z,29.00
2022-07-27T11:35:35.600Z,28.70
2022-07-27T11:38:21.891Z,28.80
2022-07-27T11:41:15.358Z,29.20
2022-07-27T11:44:16.001Z,29.50
2022-07-27T11:47:02.284Z,29.60
2022-07-27T11:49:48.340Z,29.80
2022-07-27T11:52:34.000Z,29.60
2022-07-27T11:55:19.696Z,29.80
2022-07-27T11:58:05.046Z,29.90
2022-07-27T12:00:50.459Z,29.80
2022-07-27T12:03:47.501Z,30.10
2022-07-27T12:06:34.456Z,30.20
2022-07-27T12:09:20.713Z,30.30
2022-07-27T12:12:09.727Z,30.40
2022-07-27T12:18:25.612Z,30.60
2022-07-27T12:21:20.592Z,30.60
2022-07-27T12:24:07.175Z,30.60
2022-07-27T12:27:14.237Z,30.60
2022-07-27T12:30:10.369Z,30.60
2022-07-27T12:32:55.841Z,30.30
2022-07-27T12:35:47.006Z,30.20
2022-07-27T12:38:48.719Z,30.40
2022-07-27T12:41:38.174Z,30.60
2022-07-27T12:44:35.534Z,30.60
2022-07-27T12:47:40.106Z,30.00
2022-07-27T12:50:28.811Z,29.90
2022-07-27T12:53:16.892Z,30.10
2022-07-27T12:56:05.505Z,30.00
2022-07-27T12:59:01.970Z,30.30
2022-07-27T13:01:47.465Z,30.60
2022-07-27T13:04:33.037Z,30.60
2022-07-27T13:07:19.352Z,30.80
2022-07-27T13:10:06.534Z,30.70
2022-07-27T13:12:52.530Z,30.70
2022-07-27T13:15:37.985Z,30.60
2022-07-27T13:18:24.143Z,30.60
2022-07-27T13:21:09.832Z,30.70
2022-07-27T13:23:55.170Z,30.70
2022-07-27T13:26:41.327Z,30.70
2022-07-27T13:29:27.603Z,30.40
2022-07-27T13:32:13.273Z,30.40
2022-07-27T13:34:59.252Z,30.30
2022-07-27T13:37:45.733Z,30.30
2022-07-27T13:40:31.561Z,30.00
2022-07-27T13:43:17.108Z,29.80
2022-07-27T13:46:03.459Z,29.90
2022-07-27T13:48:49.104Z,29.90
2022-07-27T13:51:35.039Z,30.10
2022-07-27T13:54:20.640Z,30.20
2022-07-27T13:57:06.243Z,30.00
2022-07-27T13:59:51.987Z,30.10
2022-07-27T14:02:38.131Z,30.20
2022-07-27T14:05:24.170Z,30.30
2022-07-27T14:08:12.184Z,30.20
2022-07-27T14:10:57.983Z,29.90
2022-07-27T14:13:44.450Z,29.80
2022-07-27T14:16:30.647Z,29.80
2022-07-27T14:19:16.324Z,29.90
2022-07-27T14:22:02.772Z,29.90
2022-07-27T14:24:48.703Z,29.90
2022-07-27T14:27:37.539Z,29.90
2022-07-27T14:30:23.151Z,30.00
2022-07-27T14:33:08.873Z,29.90
2022-07-27T14:35:54.835Z,29.80
2022-07-27T14:38:40.473Z,29.90
2022-07-27T14:41:26.884Z,30.00
2022-07-27T14:44:12.409Z,30.10
2022-07-27T14:46:58.970Z,30.40
2022-07-27T14:49:45.195Z,30.40
2022-07-27T14:52:30.815Z,30.60
2022-07-27T14:55:16.654Z,30.50
2022-07-27T14:58:03.255Z,30.40
2022-07-27T15:00:49.285Z,30.10
2022-07-27T15:03:34.871Z,29.90
2022-07-27T15:06:20.252Z,29.80
2022-07-27T15:09:06.264Z,29.80
2022-07-27T15:11:53.666Z,29.80
2022-07-27T15:14:39.693Z,30.00
2022-07-27T15:17:25.204Z,30.10
2022-07-27T15:20:11.186Z,30.10
2022-07-27T15:22:56.662Z,29.90
2022-07-27T15:25:42.430Z,29.80
2022-07-27T15:28:27.796Z,29.90
2022-07-27T15:31:13.802Z,29.80
2022-07-27T15:33:59.412Z,29.60
2022-07-27T15:36:51.632Z,29.50
2022-07-27T15:39:39.441Z,29.60
2022-07-27T15:42:25.198Z,29.70
2022-07-27T15:45:13.759Z,29.60
2022-07-27T15:47:59.509Z,29.40
2022-07-27T15:50:48.631Z,29.20
2022-07-27T15:53:34.257Z,29.00
2022-07-27T15:56:19.748Z,28.90
2022-07-27T15:59:05.319Z,28.80
2022-07-27T16:01:51.349Z,28.80
2022-07-27T16:04:40.003Z,28.70
2022-07-27T16:07:25.471Z,28.60
2022-07-27T16:10:11.115Z,28.50
2022-07-27T16:12:57.345Z,28.30
2022-07-27T16:16:02.121Z,28.20
2022-07-27T16:18:48.756Z,27.90
2022-07-27T16:21:53.691Z,27.80
2022-07-27T16:24:42.860Z,27.60
2022-07-27T16:27:32.651Z,27.70
2022-07-27T16:30:20.606Z,27.50
2022-07-27T16:33:06.542Z,27.60
2022-07-27T16:35:58.118Z,27.80
2022-07-27T16:38:50.370Z,27.90
2022-07-27T16:41:36.502Z,27.90
2022-07-27T16:44:22.194Z,27.90
2022-07-27T16:47:09.579Z,28.10
2022-07-27T16:49:56.093Z,28.20
2022-07-27T16:52:41.715Z,28.20
2022-07-27T16:55:27.813Z,28.10
2022-07-27T16:58:14.947Z,28.10
2022-07-27T17:01:00.873Z,27.90
2022-07-27T17:03:49.012Z,27.80
2022-07-27T17:06:35.771Z,27.70
2022-07-27T17:09:21.458Z,27.50
2022-07-27T17:12:07.122Z,27.50
2022-07-27T17:14:54.776Z,27.30
2022-07-27T17:17:40.670Z,27.30
2022-07-27T17:20:34.795Z,27.30
2022-07-27T17:23:21.243Z,27.30
2022-07-27T17:26:08.257Z,27.20
2022-07-27T17:28:54.234Z,27.10
2022-07-27T17:31:40.029Z,27.00
2022-07-27T17:34:26.282Z,26.90
2022-07-27T17:37:12.883Z,26.90
2022-07-27T17:39:58.671Z,26.90
2022-07-27T17:42:44.217Z,26.80
2022-07-27T17:45:29.885Z,26.80
2022-07-27T17:48:15.435Z,26.80
2022-07-27T17:51:01.121Z,26.60
2022-07-27T17:53:46.815Z,26.50
2022-07-27T17:56:32.603Z,26.50
2022-07-27T17:59:37.147Z,26.40
2022-07-27T18:02:24.599Z,26.30
2022-07-27T18:05:10.493Z,26.30
2022-07-27T18:07:57.421Z,26.20
2022-07-27T18:10:43.061Z,25.80
2022-07-27T18:13:39.393Z,25.50
2022-07-27T18:16:26.517Z,25.30
2022-07-27T18:19:12.418Z,25.30
2022-07-27T18:21:58.351Z,25.10
2022-07-27T18:24:43.931Z,25.10
2022-07-27T18:27:32.439Z,25.30
2022-07-27T18:30:18.184Z,25.30
2022-07-27T18:33:03.886Z,25.40
2022-07-27T18:35:49.269Z,25.30
2022-07-27T18:38:34.776Z,25.20
2022-07-27T18:41:20.599Z,25.10
2022-07-27T18:44:06.560Z,25.00
2022-07-27T18:46:52.044Z,25.10
2022-07-27T18:49:37.634Z,25.10
2022-07-27T18:52:23.203Z,25.10
2022-07-27T18:55:09.225Z,25.20
2022-07-27T18:57:58.150Z,24.90
2022-07-27T19:00:43.968Z,24.70
2022-07-27T19:03:30.541Z,24.60
2022-07-27T19:06:18.166Z,24.50
2022-07-27T19:09:04.935Z,24.30
2022-07-27T19:11:50.335Z,24.40
2022-07-27T19:14:36.033Z,24.40
2022-07-27T19:17:21.593Z,24.50
2022-07-27T19:20:09.384Z,24.60
2022-07-27T19:22:55.674Z,24.60
2022-07-27T19:25:43.517Z,24.30
2022-07-27T19:28:29.381Z,24.30
2022-07-27T19:31:22.898Z,24.30
2022-07-27T19:34:09.450Z,24.30
2022-07-27T19:36:55.065Z,24.30
2022-07-27T19:39:57.899Z,24.20
2022-07-27T19:42:45.807Z,24.20
2022-07-27T19:45:31.648Z,24.20
2022-07-27T19:48:17.447Z,24.10
2022-07-27T19:51:06.775Z,24.00
2022-07-27T19:53:52.931Z,24.00
2022-07-27T19:56:38.620Z,23.70
2022-07-27T19:59:24.409Z,23.80
2022-07-27T20:02:10.232Z,23.70
2022-07-27T20:04:55.686Z,23.60
2022-07-27T20:07:42.047Z,23.70
2022-07-27T20:10:27.827Z,23.60
2022-07-27T20:13:14.583Z,23.60
2022-07-27T20:16:00.128Z,23.50
2022-07-27T20:18:45.618Z,23.50
2022-07-27T20:21:33.609Z,23.40
2022-07-27T20:24:19.105Z,23.40
2022-07-27T20:27:04.685Z,23.40
2022-07-27T20:29:50.355Z,23.40
2022-07-27T20:32:36.252Z,23.40
2022-07-27T20:35:22.200Z,23.30
2022-07-27T20:38:07.778Z,23.30
2022-07-27T20:40:53.391Z,23.30
2022-07-27T20:43:38.934Z,23.20
2022-07-27T20:46:24.376Z,23.20
2022-07-27T20:49:09.925Z,23.20
2022-07-27T20:51:55.824Z,23.10
2022-07-27T20:54:41.913Z,23.10
2022-07-27T20:57:27.628Z,23.00
2022-07-27T21:00:13.823Z,23.00
2022-07-27T21:02:59.705Z,22.90
2022-07-27T21:05:45.606Z,22.80
2022-07-27T21:08:31.444Z,22.80
2022-07-27T21:11:17.112Z,22.80
2022-07-27T21:14:02.697Z,22.60
2022-07-27T21:16:48.586Z,22.60
2022-07-27T21:19:34.174Z,22.50
2022-07-27T21:22:19.582Z,22.50
2022-07-27T21:25:06.594Z,22.50
2022-07-27T21:27:53.025Z,22.50
2022-07-27T21:30:38.961Z,22.50
2022-07-27T21:33:24.709Z,22.40
2022-07-27T21:36:09.877Z,22.40
2022-07-27T21:38:55.328Z,22.40
2022-07-27T21:41:40.949Z,22.40
2022-07-27T21:44:26.662Z,22.50
2022-07-27T21:47:14.206Z,22.60
2022-07-27T21:50:00.278Z,22.70
2022-07-27T21:52:45.696Z,22.70
2022-07-27T21:55:31.391Z,22.60
2022-07-27T21:58:16.787Z,22.60
2022-07-27T22:01:02.452Z,22.60
2022-07-27T22:03:48.119Z,22.90
2022-07-27T22:06:33.765Z,22.40
2022-07-27T22:09:20.309Z,22.30
2022-07-27T22:12:06.258Z,22.40
2022-07-27T22:14:51.842Z,22.50
2022-07-27T22:17:46.192Z,22.50
2022-07-27T22:20:36.790Z,22.50
2022-07-27T22:23:22.477Z,22.60
2022-07-27T22:26:08.104Z,22.50
2022-07-27T22:28:54.145Z,22.50
2022-07-27T22:31:39.685Z,22.50
2022-07-27T22:34:25.603Z,22.40
2022-07-27T22:37:14.925Z,22.50
2022-07-27T22:40:00.775Z,22.50
2022-07-27T22:42:46.102Z,22.50
2022-07-27T22:45:31.930Z,22.40
2022-07-27T22:48:18.017Z,22.40
2022-07-27T22:51:03.698Z,22.40
2022-07-27T22:53:49.408Z,22.30
2022-07-27T22:56:35.157Z,22.30
2022-07-27T22:59:21.202Z,22.30
2022-07-27T23:02:06.751Z,22.30
2022-07-27T23:04:53.369Z,22.20
2022-07-27T23:07:38.927Z,22.20
2022-07-27T23:10:42.998Z,22.10
2022-07-27T23:13:33.684Z,22.00
2022-07-27T23:16:19.779Z,21.90
2022-07-27T23:19:05.328Z,21.90
2022-07-27T23:21:50.722Z,21.90
2022-07-27T23:24:41.133Z,22.00
2022-07-27T23:27:27.561Z,22.00
2022-07-27T23:30:13.074Z,21.90
2022-07-27T23:32:58.946Z,21.90
2022-07-27T23:35:44.714Z,21.80
2022-07-27T23:38:30.115Z,21.80
2022-07-27T23:41:17.010Z,21.70
2022-07-27T23:44:02.761Z,21.70
2022-07-27T23:46:48.521Z,21.60
2022-07-27T23:49:34.169Z,21.60
2022-07-27T23:52:19.906Z,21.50
2022-07-27T23:55:06.761Z,21.50
2022-07-27T23:57:52.483Z,21.50
